Metar Flugplatz Niederstetten

ETHN 011520Z 10008KT 9999 FEW070 24/07 Q1019 BLU+



Temperatur Niederstetten
24 Grad Celsius

QNH Niederstetten
1019
==============================================================

TAF Niederstetten:

TAF ETHN 291027Z 2911/3002 24010KT 9999 NSW FEW240 TEMPO 2911/2916 26012G22KT 9999 NSW SCT035 BKN240



Alle Angaben ohne Gewähr